Capitol, MT

12:38 AM MDT on September 17, 2014 (GMT -0600)
Baker Municipal | Change Station
CLOSE
Current Station
Airport
Location: Baker,
Elevation: 2972 ft
Nearby Weather Stations

Elev 2972 ft 46.35 °N, 104.26 °W | Updated 47 minutes ago

Partly Cloudy
Partly Cloudy
50 °F
Feels Like 50 °F
N
0
Wind Variable Wind from North

Today
High -- | Low -- °F
--% Chance of Precip.
Yesterday
High -- | Low -- °F
Precip. -- in
6:37 AM 7:03 PM
Last Quarter, 38% visible
Pressure 29.92 in
Visibility 10.0 miles
Clouds Clear
Dew Point 46 °F
Humidity 86%
Rainfall 0.00 in
Snow Depth Not available.
UV 0 out of 12
Pollen 5.80 out of 12
Air Quality Not available.
Flu Activity Not available.
METAR KBHK 170551Z AUTO 00000KT 10SM CLR 10/08 A2996 RMK AO2 SLP131 T01000078 10217 20094 51002

More Conditions Fewer Conditions

Pressure 29.92 in
Visibility 10.0 miles
Clouds Clear
Dew Point 46 °F
Humidity 86%
Rainfall 0.00 in
Snow Depth Not available.
UV 0 out of 12
Pollen 5.80 out of 12
Air Quality Not available.
Flu Activity Not available.
METAR KBHK 170551Z AUTO 00000KT 10SM CLR 10/08 A2996 RMK AO2 SLP131 T01000078 10217 20094 51002

More Conditions Fewer Conditions

10-Day Weather Forecast

Almanac

Astronomy

Sep. 17, 2014 Rise Set
Actual Time 6:37 AM MDT 7:03 PM MDT
Civil Twilight 6:08 AM MDT 7:33 PM MDT
Nautical Twilight 5:32 AM MDT 8:08 PM MDT
Astronomical Twilight 4:56 AM MDT 8:44 PM MDT
Moon 12:27 AM MDT 3:27 PM MDT
Length of Visible Light 13h 25m
Length of Day
12h 26m
Tomorrow will be 3m 9s shorter.
Last Quarter, 38% of the Moon is Illuminated
Today
Last Quarter
Sep 24
New
Oct 1
First Quarter
Oct 8
Full
Oct 15
Last Quarter

Today's Extremes

State Highs State Lows

Community

WunderPhotos

Upload Photos

1,753,970 photos uploaded!

Nearby

Snow Depth

Station Depth Elevation
West Yellowstone 0 in 6700 ft
Lone Mountain 0 in 8880 ft
Dupuyer Creek 0 in 5750 ft
Carrot Basin 0 in 9000 ft
Crystal Lake 0 in 6050 ft

Earthquake Activity

City Distance Mag. Time & Date
No recent earthquake activity has been reported nearby.
Minimum magnitude displayed is 2.5.

Coastal Water Temperatures

Place Temperature
No Stations Reporting

Nearby Weather Stations